East Spencer, North Carolina
Current Conditions -  °F | °C
As of 1:55 PM on Friday 21 Nov 2014 (Local Time) from KRUQ Reporting Station
Clear Clear  
Wind Chill: 47°   Ceiling: Unl
Heat Index: 50°   Visibility: 10mi
Dew Point: 12°   Wind: 7mph
Humidity: 22%   Direction: 340°NNW
Pressure: 30.4"   Gusts: NA
Location:  35.68°N, 80.43°W
Report Text: KRUQ 211855Z AUTO 34006KT 10SM CLR 10/M11 A3040 RMK AO2 T00991110
Loading
Personal Weather Stations






























Interactive Weather Map New forecast layout! Learn more

10-Day Weather Forecast

Advertisements
Track Severe Weather on mobile